Time;durP1;ratioP1;P1;durP2;ratioP2;P2;SDS_P1;SDS_P2;PMS_P1;PMS_P2;Temp;Humidity;BMP_temperature;BMP_pressure;BME280_temperature;BME280_humidity;BME280_pressure;Samples;Min_cycle;Max_cycle;Signal;HPM_P1;HPM_P2
2022/12/12 00:02:18;;;;;;;22.13;10.80;;;;;;;;;;5048719;28;20277;-74
2022/12/12 00:04:43;;;;;;;21.63;10.23;;;;;;;;;;5067021;28;20285;-75
2022/12/12 00:07:08;;;;;;;23.37;10.20;;;;;;;;;;5053293;28;20437;-74
2022/12/12 00:09:34;;;;;;;21.53;9.90;;;;;;;;;;5051089;28;20285;-75
2022/12/12 00:11:59;;;;;;;19.87;9.67;;;;;;;;;;5064518;28;20282;-74
2022/12/12 00:14:24;;;;;;;17.73;9.00;;;;;;;;;;5067900;28;20795;-74
2022/12/12 00:16:49;;;;;;;19.00;9.47;;;;;;;;;;5052918;28;20393;-75
2022/12/12 00:19:14;;;;;;;19.50;9.30;;;;;;;;;;5065247;28;20306;-75
2022/12/12 00:21:40;;;;;;;22.97;9.97;;;;;;;;;;5062997;28;20028;-75
2022/12/12 00:24:05;;;;;;;18.98;9.32;;;;;;;;;;5070831;28;20020;-74
2022/12/12 00:26:32;;;;;;;21.77;9.80;;;;;;;;;;5049384;28;20479;-74
2022/12/12 00:28:58;;;;;;;20.13;9.77;;;;;;;;;;5066039;28;20028;-74
2022/12/12 00:31:23;;;;;;;22.05;10.10;;;;;;;;;;5049786;28;20081;-75
2022/12/12 00:33:49;;;;;;;76.47;12.88;;;;;;;;;;5067020;28;20395;-75
2022/12/12 00:36:18;;;;;;;24.85;10.68;;;;;;;;;;5066724;28;20081;-74
2022/12/12 00:38:44;;;;;;;25.85;10.75;;;;;;;;;;5069359;28;20053;-74
2022/12/12 00:41:09;;;;;;;24.20;10.77;;;;;;;;;;5070030;28;20099;-75
2022/12/12 00:43:34;;;;;;;28.40;11.23;;;;;;;;;;5068349;28;20054;-74
2022/12/12 00:46:00;;;;;;;26.60;11.52;;;;;;;;;;5069515;28;20282;-74
2022/12/12 00:48:25;;;;;;;25.48;11.38;;;;;;;;;;5070291;28;20468;-74
2022/12/12 00:50:50;;;;;;;28.83;11.90;;;;;;;;;;5047181;28;20028;-75
2022/12/12 00:53:16;;;;;;;30.60;13.70;;;;;;;;;;5047758;28;20292;-75
2022/12/12 00:55:41;;;;;;;26.57;12.13;;;;;;;;;;5066677;28;20035;-75
2022/12/12 00:58:06;;;;;;;29.05;12.27;;;;;;;;;;5062083;28;20048;-75
2022/12/12 01:00:32;;;;;;;28.73;12.38;;;;;;;;;;5065118;28;20056;-75
2022/12/12 01:02:57;;;;;;;29.15;12.73;;;;;;;;;;5063648;28;20068;-75
2022/12/12 01:05:23;;;;;;;27.42;12.15;;;;;;;;;;5052803;28;20044;-74
2022/12/12 01:07:48;;;;;;;34.63;13.43;;;;;;;;;;5066986;28;20033;-75
2022/12/12 01:10:14;;;;;;;32.55;13.52;;;;;;;;;;5062542;28;20047;-75
2022/12/12 01:12:39;;;;;;;28.38;12.68;;;;;;;;;;5066425;28;20040;-75
2022/12/12 01:15:06;;;;;;;33.78;14.82;;;;;;;;;;5062533;28;20048;-75
2022/12/12 01:17:36;;;;;;;34.33;13.95;;;;;;;;;;5047724;28;20078;-75
2022/12/12 01:20:02;;;;;;;31.60;13.75;;;;;;;;;;5064566;28;20423;-75
2022/12/12 01:22:27;;;;;;;33.88;14.15;;;;;;;;;;5046918;28;20105;-75
2022/12/12 01:24:55;;;;;;;33.43;15.00;;;;;;;;;;5051659;28;20078;-74
2022/12/12 01:27:21;;;;;;;31.80;15.20;;;;;;;;;;5063231;28;20288;-75
2022/12/12 01:29:46;;;;;;;30.50;14.10;;;;;;;;;;5063548;28;20119;-75
2022/12/12 01:32:11;;;;;;;27.27;13.00;;;;;;;;;;5046868;28;20020;-74
2022/12/12 01:34:36;;;;;;;27.20;13.33;;;;;;;;;;5065415;28;20024;-74
2022/12/12 01:37:01;;;;;;;27.23;14.03;;;;;;;;;;5063864;28;20107;-75
2022/12/12 01:39:27;;;;;;;30.83;13.47;;;;;;;;;;5067533;28;20063;-75
2022/12/12 01:41:52;;;;;;;32.53;14.75;;;;;;;;;;5058201;28;20266;-75
2022/12/12 01:44:36;;;;;;;30.90;13.20;;;;;;;;;;5065944;28;20036;-75
2022/12/12 01:47:01;;;;;;;32.15;13.45;;;;;;;;;;5061564;28;20021;-75
2022/12/12 01:49:27;;;;;;;35.47;15.60;;;;;;;;;;5044288;28;20031;-74
2022/12/12 01:51:55;;;;;;;29.48;13.00;;;;;;;;;;5048348;28;20064;-75
2022/12/12 01:54:29;;;;;;;29.08;14.27;;;;;;;;;;5059966;28;20032;-74
2022/12/12 01:56:55;;;;;;;32.25;14.05;;;;;;;;;;5065875;28;20379;-74
2022/12/12 01:59:21;;;;;;;31.73;14.45;;;;;;;;;;5041564;28;20057;-75
2022/12/12 02:01:47;;;;;;;34.85;15.00;;;;;;;;;;5063017;28;20047;-75
2022/12/12 02:04:12;;;;;;;33.67;14.77;;;;;;;;;;5047690;28;20033;-75
2022/12/12 02:06:38;;;;;;;36.33;15.43;;;;;;;;;;5063074;28;20276;-75
2022/12/12 02:09:05;;;;;;;32.72;15.25;;;;;;;;;;5060126;28;20067;-74
2022/12/12 02:11:31;;;;;;;35.50;14.52;;;;;;;;;;5065032;28;20762;-74
2022/12/12 02:13:57;;;;;;;35.95;15.52;;;;;;;;;;5066088;28;20104;-75
2022/12/12 02:16:25;;;;;;;38.10;14.93;;;;;;;;;;5069474;28;20040;-75
2022/12/12 02:19:09;;;;;;;38.45;15.00;;;;;;;;;;5061164;28;20082;-74
2022/12/12 02:21:48;;;;;;;38.17;15.45;;;;;;;;;;5050615;28;20474;-75
2022/12/12 02:24:25;;;;;;;33.53;14.52;;;;;;;;;;5065885;28;20040;-74
2022/12/12 02:27:09;;;;;;;34.78;14.52;;;;;;;;;;5059768;28;20060;-74
2022/12/12 02:29:37;;;;;;;37.95;15.07;;;;;;;;;;5065082;28;20103;-75
2022/12/12 02:32:02;;;;;;;34.30;14.40;;;;;;;;;;5062267;28;20032;-74
2022/12/12 02:34:32;;;;;;;35.63;15.17;;;;;;;;;;5069468;28;20013;-75
2022/12/12 02:37:05;;;;;;;36.22;15.43;;;;;;;;;;5060918;28;20090;-74
2022/12/12 02:39:36;;;;;;;32.67;14.88;;;;;;;;;;5067835;28;20048;-74
2022/12/12 02:42:03;;;;;;;35.03;15.27;;;;;;;;;;5060689;28;20036;-74
2022/12/12 02:44:33;;;;;;;36.10;14.75;;;;;;;;;;5060540;28;20129;-73
2022/12/12 02:47:04;;;;;;;36.40;14.95;;;;;;;;;;5063938;28;20024;-74
2022/12/12 02:49:33;;;;;;;35.88;14.77;;;;;;;;;;5064588;28;20021;-74
2022/12/12 02:51:59;;;;;;;38.13;14.85;;;;;;;;;;5065280;28;20556;-74
2022/12/12 02:54:24;;;;;;;33.55;14.93;;;;;;;;;;5063078;28;20032;-74
2022/12/12 02:56:51;;;;;;;36.80;13.97;;;;;;;;;;5067533;28;20131;-74
2022/12/12 02:59:16;;;;;;;41.50;14.82;;;;;;;;;;5061271;28;20279;-74
2022/12/12 03:01:41;;;;;;;36.33;14.93;;;;;;;;;;5059795;28;20095;-74
2022/12/12 03:07:48;;;;;;;37.60;15.52;;;;;;;;;;4969384;28;20453;-75
2022/12/12 03:10:14;;;;;;;37.30;15.25;;;;;;;;;;4952393;28;20034;-76
2022/12/12 03:12:42;;;;;;;35.90;15.23;;;;;;;;;;4968579;28;20035;-76
2022/12/12 03:15:21;;;;;;;37.23;15.40;;;;;;;;;;4963564;28;20035;-76
2022/12/12 03:17:46;;;;;;;41.53;16.80;;;;;;;;;;4973787;28;20708;-75
2022/12/12 03:20:11;;;;;;;41.07;16.10;;;;;;;;;;4968760;28;20073;-75
2022/12/12 03:22:37;;;;;;;43.17;17.40;;;;;;;;;;4966863;28;20031;-75
2022/12/12 03:25:06;;;;;;;67.47;17.67;;;;;;;;;;4968790;28;20079;-75
2022/12/12 03:27:36;;;;;;;41.80;16.70;;;;;;;;;;4949264;28;20050;-75
2022/12/12 03:30:04;;;;;;;37.70;14.23;;;;;;;;;;4969423;28;20062;-75
2022/12/12 03:32:37;;;;;;;34.15;15.30;;;;;;;;;;4966896;28;20198;-74
2022/12/12 03:35:08;;;;;;;34.72;14.80;;;;;;;;;;4968492;28;20027;-75
2022/12/12 03:37:36;;;;;;;38.33;15.45;;;;;;;;;;5000901;28;20120;-75
2022/12/12 03:40:12;;;;;;;34.25;14.85;;;;;;;;;;5066787;28;20056;-75
2022/12/12 03:42:49;;;;;;;35.42;15.52;;;;;;;;;;5060607;28;20028;-75
2022/12/12 03:45:22;;;;;;;39.60;16.85;;;;;;;;;;5059614;28;20060;-75
2022/12/12 03:47:49;;;;;;;41.28;16.98;;;;;;;;;;5065223;28;20055;-75
2022/12/12 03:50:19;;;;;;;36.40;16.45;;;;;;;;;;5043774;28;20492;-75
2022/12/12 03:53:05;;;;;;;38.00;15.90;;;;;;;;;;5063189;28;20063;-75
2022/12/12 03:55:33;;;;;;;35.88;16.38;;;;;;;;;;5062506;28;20685;-75
2022/12/12 03:58:06;;;;;;;40.67;17.30;;;;;;;;;;5062122;28;20052;-75
2022/12/12 04:00:36;;;;;;;35.53;15.77;;;;;;;;;;5041265;28;20052;-75
2022/12/12 04:03:10;;;;;;;39.72;17.88;;;;;;;;;;5061932;28;20082;-75
2022/12/12 04:08:34;;;;;;;56.33;21.00;;;;;;;;;;5057050;28;20082;-75
2022/12/12 04:13:54;;;;;;;43.55;19.23;;;;;;;;;;5061152;28;20105;-75
2022/12/12 04:16:25;;;;;;;37.90;17.25;;;;;;;;;;5056658;28;20769;-75
2022/12/12 04:18:52;;;;;;;36.35;16.98;;;;;;;;;;5065262;28;20063;-75
2022/12/12 04:24:29;;;;;;;38.35;15.95;;;;;;;;;;5061519;28;20064;-75
2022/12/12 04:26:58;;;;;;;38.72;16.90;;;;;;;;;;5049401;28;20094;-76
2022/12/12 04:29:44;;;;;;;37.50;16.58;;;;;;;;;;5069468;28;20032;-75
2022/12/12 04:32:21;;;;;;;40.67;17.48;;;;;;;;;;5045356;28;20064;-75
2022/12/12 04:34:52;;;;;;;33.13;14.95;;;;;;;;;;5065539;28;20026;-75
2022/12/12 04:37:22;;;;;;;40.60;17.23;;;;;;;;;;5063722;28;20066;-75
2022/12/12 04:39:49;;;;;;;42.45;17.35;;;;;;;;;;5060154;28;20489;-76
2022/12/12 04:42:16;;;;;;;39.85;17.50;;;;;;;;;;5065022;28;20032;-75
2022/12/12 04:44:43;;;;;;;39.78;17.15;;;;;;;;;;5049759;28;20029;-75
2022/12/12 04:47:10;;;;;;;37.90;16.05;;;;;;;;;;5051147;28;20107;-74
2022/12/12 04:49:35;;;;;;;37.40;16.48;;;;;;;;;;5045719;28;20074;-75
2022/12/12 04:52:04;;;;;;;37.20;17.15;;;;;;;;;;5068218;28;20024;-74
2022/12/12 04:54:47;;;;;;;36.53;16.00;;;;;;;;;;5070543;28;20016;-75
2022/12/12 04:57:16;;;;;;;37.03;17.23;;;;;;;;;;5060665;28;20071;-72
2022/12/12 04:59:41;;;;;;;40.03;17.00;;;;;;;;;;5065444;28;20398;-72
2022/12/12 05:02:16;;;;;;;36.33;16.00;;;;;;;;;;5066260;28;20094;-73
2022/12/12 05:04:59;;;;;;;35.33;16.60;;;;;;;;;;5040529;28;20433;-72
2022/12/12 05:07:44;;;;;;;36.80;16.17;;;;;;;;;;5063156;28;20106;-72
2022/12/12 05:10:12;;;;;;;36.22;16.38;;;;;;;;;;5059873;28;20155;-73
2022/12/12 05:12:46;;;;;;;36.40;16.13;;;;;;;;;;5065605;28;20040;-71
2022/12/12 05:15:12;;;;;;;33.53;14.63;;;;;;;;;;5062094;28;20028;-72
2022/12/12 05:17:49;;;;;;;37.25;16.17;;;;;;;;;;5054354;28;20105;-72
2022/12/12 05:20:15;;;;;;;35.45;15.93;;;;;;;;;;5059698;28;20044;-72
2022/12/12 05:22:40;;;;;;;33.03;14.80;;;;;;;;;;5043691;28;20383;-72
2022/12/12 05:25:05;;;;;;;33.17;16.00;;;;;;;;;;5056894;28;20313;-71
2022/12/12 05:27:31;;;;;;;38.20;16.92;;;;;;;;;;5057567;28;20020;-72
2022/12/12 05:29:56;;;;;;;37.97;16.70;;;;;;;;;;5058049;28;20092;-71
2022/12/12 05:32:21;;;;;;;41.63;18.23;;;;;;;;;;5059829;28;20450;-71
2022/12/12 05:34:47;;;;;;;37.08;16.23;;;;;;;;;;5059869;28;20275;-71
2022/12/12 05:37:12;;;;;;;38.73;17.10;;;;;;;;;;5053719;28;20028;-71
2022/12/12 05:39:37;;;;;;;34.73;15.30;;;;;;;;;;5046411;28;20031;-72
2022/12/12 05:42:03;;;;;;;33.80;16.95;;;;;;;;;;5064559;28;20102;-72
2022/12/12 05:44:28;;;;;;;40.65;19.27;;;;;;;;;;5064942;28;20024;-72
2022/12/12 05:46:53;;;;;;;35.77;16.67;;;;;;;;;;5060108;28;20458;-70
2022/12/12 05:49:18;;;;;;;36.67;17.08;;;;;;;;;;5062783;28;20281;-71
2022/12/12 05:51:44;;;;;;;32.97;15.98;;;;;;;;;;5047511;28;20086;-71
2022/12/12 05:54:09;;;;;;;35.50;16.77;;;;;;;;;;5047966;28;20021;-72
2022/12/12 05:56:34;;;;;;;33.97;16.83;;;;;;;;;;5063566;28;20285;-72
2022/12/12 05:58:59;;;;;;;35.10;15.83;;;;;;;;;;5068371;28;20808;-71
2022/12/12 06:01:25;;;;;;;34.67;16.77;;;;;;;;;;5060028;28;20285;-71
2022/12/12 06:03:50;;;;;;;28.80;13.73;;;;;;;;;;5049618;28;20317;-71
2022/12/12 06:06:15;;;;;;;25.57;12.83;;;;;;;;;;5062949;28;21087;-71
2022/12/12 06:08:40;;;;;;;26.07;13.20;;;;;;;;;;5058589;28;20288;-71
2022/12/12 06:11:06;;;;;;;25.37;13.07;;;;;;;;;;5061537;28;20277;-71
2022/12/12 06:13:32;;;;;;;28.10;13.90;;;;;;;;;;5042525;28;20032;-71
2022/12/12 06:15:57;;;;;;;25.90;12.27;;;;;;;;;;5067035;28;20111;-71
2022/12/12 06:18:22;;;;;;;24.38;12.88;;;;;;;;;;5067874;28;20047;-71
2022/12/12 06:20:47;;;;;;;26.43;12.73;;;;;;;;;;5066771;28;20036;-72
2022/12/12 06:23:13;;;;;;;24.53;12.27;;;;;;;;;;5064186;28;20036;-72
2022/12/12 06:25:38;;;;;;;25.17;13.07;;;;;;;;;;5063349;28;20694;-72
2022/12/12 06:28:03;;;;;;;30.25;12.82;;;;;;;;;;5064586;28;20285;-72
2022/12/12 06:30:29;;;;;;;25.63;13.70;;;;;;;;;;5065821;28;20818;-73
2022/12/12 06:32:54;;;;;;;27.37;13.63;;;;;;;;;;5062927;28;20283;-72
2022/12/12 06:35:19;;;;;;;30.17;13.20;;;;;;;;;;5060599;28;20654;-71
2022/12/12 06:37:47;;;;;;;27.50;13.70;;;;;;;;;;5066006;28;20046;-73
2022/12/12 06:40:12;;;;;;;30.10;14.27;;;;;;;;;;5065613;28;20703;-73
2022/12/12 06:42:37;;;;;;;25.53;12.43;;;;;;;;;;5047799;28;20063;-72
2022/12/12 06:45:03;;;;;;;29.40;14.20;;;;;;;;;;5059306;28;20304;-72
2022/12/12 06:47:28;;;;;;;35.63;16.02;;;;;;;;;;5065860;28;20028;-73
2022/12/12 06:49:53;;;;;;;32.53;14.27;;;;;;;;;;5056051;28;20040;-72
2022/12/12 06:52:18;;;;;;;28.37;14.17;;;;;;;;;;5046645;28;20805;-73
2022/12/12 06:54:44;;;;;;;27.40;14.13;;;;;;;;;;5059342;28;20308;-73
2022/12/12 06:57:09;;;;;;;30.02;14.27;;;;;;;;;;5042047;28;20570;-72
2022/12/12 06:59:34;;;;;;;29.60;13.73;;;;;;;;;;5048826;28;20029;-73
2022/12/12 07:01:59;;;;;;;27.00;12.80;;;;;;;;;;5041760;28;20032;-73
2022/12/12 07:04:25;;;;;;;28.90;13.00;;;;;;;;;;5038086;28;20120;-73
2022/12/12 07:06:50;;;;;;;29.40;13.40;;;;;;;;;;5043132;28;20033;-73
2022/12/12 07:09:15;;;;;;;33.13;14.75;;;;;;;;;;5039843;28;20028;-73
2022/12/12 07:11:41;;;;;;;25.27;12.00;;;;;;;;;;5037667;28;20035;-73
2022/12/12 07:14:06;;;;;;;30.07;14.37;;;;;;;;;;5044403;28;20022;-73
2022/12/12 07:16:31;;;;;;;30.58;14.82;;;;;;;;;;5040673;28;20365;-73
2022/12/12 07:18:57;;;;;;;33.85;14.85;;;;;;;;;;5043797;28;20036;-72
2022/12/12 07:21:22;;;;;;;33.00;15.23;;;;;;;;;;5043058;28;20021;-73
2022/12/12 07:23:47;;;;;;;30.20;13.77;;;;;;;;;;5038805;28;20920;-72
2022/12/12 07:26:14;;;;;;;30.20;13.38;;;;;;;;;;5044354;28;20514;-72
2022/12/12 07:28:40;;;;;;;31.67;14.18;;;;;;;;;;5046100;28;20033;-73
2022/12/12 07:31:06;;;;;;;27.95;13.15;;;;;;;;;;5041571;28;20056;-72
2022/12/12 07:33:32;;;;;;;33.58;14.65;;;;;;;;;;5044241;28;20033;-73
2022/12/12 07:35:58;;;;;;;30.40;12.98;;;;;;;;;;5037502;28;20037;-73
2022/12/12 07:38:24;;;;;;;30.58;14.52;;;;;;;;;;5035453;28;20029;-73
2022/12/12 07:40:49;;;;;;;34.03;15.23;;;;;;;;;;5047072;28;20029;-72
2022/12/12 07:43:14;;;;;;;28.30;12.37;;;;;;;;;;5045122;28;20036;-71
2022/12/12 07:45:42;;;;;;;29.97;13.67;;;;;;;;;;5041335;28;20037;-71
2022/12/12 07:48:07;;;;;;;31.08;14.50;;;;;;;;;;5041618;28;20290;-71
2022/12/12 07:50:33;;;;;;;30.77;13.63;;;;;;;;;;5040074;28;20036;-70
2022/12/12 07:52:58;;;;;;;27.60;12.47;;;;;;;;;;5039720;28;20318;-71
2022/12/12 07:55:23;;;;;;;27.50;12.77;;;;;;;;;;5040167;28;21147;-68
2022/12/12 07:57:48;;;;;;;30.67;13.17;;;;;;;;;;5050837;28;20411;-68
2022/12/12 08:00:14;;;;;;;30.83;13.38;;;;;;;;;;5065343;28;20394;-69
2022/12/12 08:02:40;;;;;;;30.67;13.25;;;;;;;;;;5067352;28;20025;-71
2022/12/12 08:05:05;;;;;;;31.00;13.75;;;;;;;;;;5048375;28;20111;-72
2022/12/12 08:07:31;;;;;;;40.22;16.92;;;;;;;;;;5050511;28;20490;-72
2022/12/12 08:09:56;;;;;;;36.15;17.83;;;;;;;;;;5063178;28;20024;-72
2022/12/12 08:12:22;;;;;;;31.97;15.30;;;;;;;;;;5067345;28;20028;-69
2022/12/12 08:14:47;;;;;;;31.52;13.90;;;;;;;;;;5049159;28;20553;-71
2022/12/12 08:17:13;;;;;;;31.73;14.10;;;;;;;;;;5051801;28;20047;-69
2022/12/12 08:19:38;;;;;;;28.40;14.07;;;;;;;;;;5065640;28;20085;-70
2022/12/12 08:22:03;;;;;;;24.55;12.07;;;;;;;;;;5050580;28;20047;-71
2022/12/12 08:24:29;;;;;;;27.30;13.30;;;;;;;-0.06;nan;99920.88;5066665;28;20033;-70
2022/12/12 08:26:54;;;;;;;27.45;14.32;;;;;;;-0.21;nan;99894.09;5069421;28;20277;-68
2022/12/12 08:29:19;;;;;;;27.40;12.55;;;;;;;-0.21;nan;99899.25;5070598;28;20059;-69
2022/12/12 08:31:45;;;;;;;26.05;11.57;;;;;;;-0.28;nan;99886.19;5064301;28;20424;-70
2022/12/12 08:34:10;;;;;;;24.05;11.05;;;;;;;-0.14;nan;99918.31;5066191;28;20051;-71
2022/12/12 08:36:36;;;;;;;23.67;11.18;;;;;;;-0.14;nan;99920.13;5066688;28;20040;-74
2022/12/12 08:39:08;;;;;;;21.98;10.95;;;;;;;-0.17;nan;99910.06;5062211;28;20020;-73
2022/12/12 08:41:36;;;;;;;20.95;10.65;;;;;;;-0.20;nan;99910.41;5067712;28;20040;-73
2022/12/12 08:44:01;;;;;;;24.35;11.18;;;;;;;-0.14;nan;99928.69;5069908;28;20052;-73
2022/12/12 08:46:27;;;;;;;27.92;12.73;;;;;;;-0.20;nan;99894.91;5051799;28;20113;-71
2022/12/12 08:48:52;;;;;;;27.85;13.23;;;;;;;-0.09;nan;99913.44;5047891;28;20165;-71
2022/12/12 08:51:18;;;;;;;25.17;11.75;;;;;;;-0.06;nan;99920.06;5047164;28;20572;-71
2022/12/12 08:53:45;;;;;;;24.23;12.18;;;;;;;-0.13;nan;99901.81;5063495;28;20489;-73
2022/12/12 08:56:10;;;;;;;31.50;13.63;;;;;;;0.04;nan;99918.09;5066384;28;20035;-73
2022/12/12 08:58:35;;;;;;;26.40;11.63;;;;;;;0.07;nan;99922.13;5066728;28;20048;-73
2022/12/12 09:01:01;;;;;;;25.15;12.90;;;;;;;0.00;nan;99914.25;5050375;28;20119;-70
2022/12/12 09:03:27;;;;;;;27.52;13.05;;;;;;;0.03;nan;99923.44;5048781;28;20025;-68
2022/12/12 09:05:52;;;;;;;24.83;11.30;;;;;;;0.12;nan;99936.19;5068125;28;20458;-73
2022/12/12 09:08:17;;;;;;;26.33;11.73;;;;;;;0.20;nan;99933.56;5046124;28;20108;-73
2022/12/12 09:10:48;;;;;;;24.52;12.52;;;;;;;0.42;nan;99934.56;5059845;28;20105;-72
2022/12/12 09:13:14;;;;;;;29.42;12.73;;;;;;;0.68;nan;99941.22;5058683;28;20036;-72
2022/12/12 09:15:39;;;;;;;25.52;11.35;;;;;;;0.64;nan;99935.56;5065343;28;20024;-73
2022/12/12 09:18:05;;;;;;;32.40;13.85;;;;;;;0.68;nan;99959.38;5059247;28;20023;-72
2022/12/12 09:20:30;;;;;;;24.40;11.73;;;;;;;0.70;nan;99943.66;5048621;28;20025;-72
2022/12/12 09:22:55;;;;;;;24.08;11.23;;;;;;;0.72;nan;99962.41;5049097;28;20032;-73
2022/12/12 09:25:21;;;;;;;28.75;13.02;;;;;;;0.87;nan;99952.94;5061220;28;20099;-72
2022/12/12 09:27:47;;;;;;;529.38;141.35;;;;;;;1.06;nan;99959.44;5065278;28;20476;-72
2022/12/12 09:30:12;;;;;;;49.30;19.60;;;;;;;;;;5051204;28;20035;-72
2022/12/12 09:32:37;;;;;;;39.88;16.42;;;;;;;;;;5049797;28;20063;-71
2022/12/12 09:35:03;;;;;;;30.08;13.90;;;;;;;;;;5066420;28;20024;-72
2022/12/12 09:37:28;;;;;;;22.75;11.38;;;;;;;;;;5064337;28;20040;-72
2022/12/12 09:39:53;;;;;;;22.95;10.27;;;;;;;;;;5053770;28;20028;-71
2022/12/12 09:42:18;;;;;;;23.97;10.27;;;;;;;;;;5070253;28;20393;-71
2022/12/12 09:44:44;;;;;;;23.37;10.43;;;;;;;;;;5060343;28;20453;-70
2022/12/12 09:47:16;;;;;;;21.88;10.35;;;;;;;;;;5064956;28;20020;-71
2022/12/12 09:49:45;;;;;;;19.98;9.90;;;;;;;;;;5066926;28;20432;-71
2022/12/12 09:52:23;;;;;;;21.60;10.70;;;;;;;0.93;nan;99972.16;5047501;28;20024;-72
2022/12/12 09:54:49;;;;;;;18.92;9.82;;;;;;;0.94;nan;99966.03;5044190;28;20123;-71
2022/12/12 09:57:34;;;;;;;20.73;10.55;;;;;;;0.67;nan;99928.44;5068077;28;20569;-72
2022/12/12 10:00:13;;;;;;;20.80;10.70;;;;;;;0.71;nan;99947.84;5059020;28;20121;-71
2022/12/12 10:03:07;;;;;;;20.90;10.40;;;;;;;0.52;nan;99949.91;5063074;28;20078;-72
2022/12/12 10:05:37;;;;;;;21.10;10.38;;;;;;;0.51;nan;99958.66;5061737;28;20501;-72
2022/12/12 10:08:09;;;;;;;21.52;11.27;;;;;;;0.58;nan;99969.16;5041130;28;20106;-72
2022/12/12 10:10:43;;;;;;;22.33;10.35;;;;;;;0.60;nan;99975.78;5055941;28;20017;-72
2022/12/12 10:13:20;;;;;;;20.75;10.50;;;;;;;0.72;nan;99985.75;5059075;28;20103;-73
2022/12/12 10:15:50;;;;;;;22.35;10.10;;;;;;;0.64;nan;99963.28;5055780;28;20029;-73
2022/12/12 10:18:24;;;;;;;25.77;11.18;;;;;;;0.66;nan;99989.03;5036871;28;20039;-73
2022/12/12 10:20:52;;;;;;;28.42;12.85;;;;;;;0.70;nan;99987.72;5056513;28;20486;-73
2022/12/12 10:23:21;;;;;;;26.77;12.02;;;;;;;0.74;nan;99996.75;5059949;28;20044;-73
2022/12/12 10:26:26;;;;;;;22.58;10.88;;;;;;;0.62;nan;99996.31;5039994;28;20040;-73
2022/12/12 10:28:56;;;;;;;24.88;11.25;;;;;;;0.60;nan;100004.28;4988412;28;20145;-73
2022/12/12 10:31:51;;;;;;;23.58;10.63;;;;;;;0.57;nan;100002.00;4987074;28;20113;-73
2022/12/12 10:34:44;;;;;;;21.73;10.57;;;;;;;0.60;nan;100001.69;4987189;28;20113;-73
2022/12/12 10:37:34;;;;;;;20.42;10.50;;;;;;;0.62;nan;100010.09;4988765;28;20488;-72
2022/12/12 10:40:15;;;;;;;24.13;11.15;;;;;;;0.57;nan;100004.59;4986188;28;20046;-72
2022/12/12 10:42:56;;;;;;;23.33;10.43;;;;;;;0.61;nan;100013.66;4984106;28;20050;-70
2022/12/12 10:45:55;;;;;;;25.38;11.70;;;;;;;0.61;nan;100023.22;4986013;28;20059;-73
2022/12/12 10:48:21;;;;;;;24.42;11.73;;;;;;;0.60;nan;100017.22;4985024;28;20018;-71
2022/12/12 10:50:51;;;;;;;27.08;11.38;;;;;;;0.73;nan;100028.84;4988396;28;20476;-71
2022/12/12 10:53:18;;;;;;;22.92;10.85;;;;;;;0.72;nan;100022.03;4988307;28;20117;-71
2022/12/12 10:55:53;;;;;;;21.90;10.85;;;;;;;0.37;nan;99972.34;4984600;28;20033;-70
2022/12/12 10:58:27;;;;;;;20.30;10.18;;;;;;;0.48;nan;100008.22;4987392;28;20136;-70
2022/12/12 11:01:01;;;;;;;23.92;10.57;;;;;;;0.52;nan;100022.44;5061675;28;20020;-71
2022/12/12 11:03:31;;;;;;;20.67;10.93;;;;;;;0.55;nan;100019.53;5063071;28;20060;-70
2022/12/12 11:06:05;;;;;;;21.50;11.15;;;;;;;0.63;nan;100021.28;5064457;28;20025;-70
2022/12/12 11:08:35;;;;;;;25.85;12.23;;;;;;;0.63;nan;100021.28;5046897;28;20028;-70
2022/12/12 11:11:18;;;;;;;24.33;11.77;;;;;;;0.66;nan;100023.50;5061512;28;20021;-70
2022/12/12 11:13:49;;;;;;;22.27;11.35;;;;;;;0.61;nan;100021.44;5058266;28;20025;-70
2022/12/12 11:16:26;;;;;;;25.33;12.50;;;;;;;0.56;nan;100007.38;5057478;28;20449;-71
2022/12/12 11:19:22;;;;;;;24.90;12.55;;;;;;;0.63;nan;100018.69;5060857;28;20025;-71
2022/12/12 11:21:48;;;;;;;21.65;10.85;;;;;;;0.60;nan;100016.44;5061410;28;20079;-70
2022/12/12 11:24:18;;;;;;;21.25;10.65;;;;;;;0.41;nan;99994.34;5062543;28;20032;-70
2022/12/12 11:26:48;;;;;;;23.38;10.07;;;;;;;0.45;nan;100013.72;5059904;28;20096;-71
2022/12/12 11:29:24;;;;;;;20.83;10.38;;;;;;;0.42;nan;100006.28;5064597;28;20032;-70
2022/12/12 11:31:49;;;;;;;21.60;10.60;;;;;;;0.54;nan;100006.72;5047878;28;20104;-71
2022/12/12 11:34:15;;;;;;;25.92;13.02;;;;;;;0.42;nan;99993.34;5068513;28;20103;-70
2022/12/12 11:36:41;;;;;;;27.58;13.65;;;;;;;0.50;nan;100014.03;5071474;28;20111;-70
2022/12/12 11:39:20;;;;;;;24.55;11.02;;;;;;;0.35;nan;100006.16;5047990;28;20545;-70
2022/12/12 11:41:57;;;;;;;33.55;16.23;;;;;;;0.52;nan;100008.69;5069047;28;20020;-70
2022/12/12 11:44:25;;;;;;;27.02;13.15;;;;;;;0.52;nan;100006.91;5069688;28;20028;-71
2022/12/12 11:46:51;;;;;;;36.60;15.68;;;;;;;0.55;nan;100010.94;5044379;28;20486;-70
2022/12/12 11:49:19;;;;;;;44.70;19.60;;;;;;;0.56;nan;99992.63;5068389;28;20024;-70
2022/12/12 11:51:45;;;;;;;24.70;12.57;;;;;;;0.68;nan;100006.03;5047225;28;20025;-70
2022/12/12 11:54:19;;;;;;;27.17;11.73;;;;;;;0.51;nan;99963.84;5065762;28;20621;-70
2022/12/12 11:57:05;;;;;;;23.95;11.73;;;;;;;0.79;nan;99999.63;5044523;28;20524;-70
2022/12/12 11:59:36;;;;;;;25.38;12.27;;;;;;;0.95;nan;100015.09;5046475;28;20046;-70
2022/12/12 12:02:04;;;;;;;23.65;10.77;;;;;;;0.96;nan;100015.88;5065756;28;20020;-70
2022/12/12 12:04:48;;;;;;;24.25;11.10;;;;;;;0.92;nan;100015.44;5069325;28;20024;-71
2022/12/12 12:07:28;;;;;;;22.35;10.43;;;;;;;0.97;nan;100010.53;5070915;28;20039;-71
2022/12/12 12:10:00;;;;;;;23.15;10.95;;;;;;;1.12;nan;100002.03;5067988;28;20054;-71
2022/12/12 12:12:55;;;;;;;17.67;8.40;;;;;;;1.01;nan;100009.22;5067344;28;20412;-71
2022/12/12 12:15:27;;;;;;;18.15;8.80;;;;;;;0.91;nan;100000.88;5056764;28;20513;-70
2022/12/12 12:18:21;;;;;;;22.48;10.55;;;;;;;1.03;nan;100007.28;5066621;28;20032;-70
2022/12/12 12:21:08;;;;;;;22.08;10.45;;;;;;;1.14;nan;100010.44;5042826;28;20501;-71
2022/12/12 12:23:51;;;;;;;57.25;20.17;;;;;;;1.08;nan;100009.34;5066993;28;20028;-71
2022/12/12 12:26:29;;;;;;;59.80;23.38;;;;;;;1.04;nan;100013.25;5068238;28;20025;-71
2022/12/12 12:29:03;;;;;;;53.53;20.10;;;;;;;1.18;nan;100009.94;5049636;28;20037;-69
2022/12/12 12:31:34;;;;;;;24.35;12.15;;;;;;;1.25;nan;99981.50;5046096;28;20028;-70
2022/12/12 12:34:17;;;;;;;23.63;11.35;;;;;;;1.59;nan;100003.59;5068387;28;20017;-71
2022/12/12 12:37:11;;;;;;;18.50;9.57;;;;;;;1.73;nan;99997.63;5067737;28;20386;-71
2022/12/12 12:39:51;;;;;;;27.77;12.90;;;;;;;1.85;nan;100003.19;5046431;28;20059;-70
2022/12/12 12:42:32;;;;;;;22.05;12.30;;;;;;;1.84;nan;100002.38;5064981;28;20020;-71
2022/12/12 12:45:11;;;;;;;20.65;9.88;;;;;;;1.61;nan;99994.66;5042618;28;20036;-71
2022/12/12 12:47:51;;;;;;;27.70;11.88;;;;;;;1.70;nan;99996.19;5064235;28;20038;-69
2022/12/12 12:50:16;;;;;;;20.23;10.75;;;;;;;1.72;nan;99990.00;5067882;28;20029;-70
2022/12/12 12:52:56;;;;;;;20.33;10.55;;;;;;;1.68;nan;100005.16;5061945;28;20040;-70
2022/12/12 12:55:49;;;;;;;17.10;8.68;;;;;;;1.80;nan;100001.13;5064502;28;20462;-70
2022/12/12 12:58:24;;;;;;;21.38;10.10;;;;;;;1.93;nan;100003.09;5065645;28;20101;-70
2022/12/12 13:00:59;;;;;;;19.27;9.38;;;;;;;1.92;nan;99983.34;5066514;28;20036;-70
2022/12/12 13:03:30;;;;;;;19.10;9.65;;;;;;;2.00;nan;100011.81;5067954;28;20019;-70
2022/12/12 13:06:00;;;;;;;18.50;9.65;;;;;;;1.96;nan;100007.94;5065341;28;20028;-70
2022/12/12 13:08:38;;;;;;;18.27;9.40;;;;;;;1.99;nan;100006.78;5067774;28;20056;-71
2022/12/12 13:11:16;;;;;;;19.60;10.02;;;;;;;2.00;nan;100011.81;5061312;28;20090;-70
2022/12/12 13:13:46;;;;;;;21.52;10.60;;;;;;;1.63;nan;99948.59;5060735;28;20402;-70
2022/12/12 13:16:38;;;;;;;17.65;8.85;;;;;;;1.95;nan;100011.53;5065371;28;20035;-70
2022/12/12 13:19:10;;;;;;;17.25;8.45;;;;;;;1.88;nan;100010.63;5061177;28;20060;-71
2022/12/12 13:21:41;;;;;;;19.05;9.68;;;;;;;1.87;nan;100004.63;5064148;28;20133;-71
2022/12/12 13:24:12;;;;;;;17.85;8.98;;;;;;;1.95;nan;100015.94;5065667;28;20032;-69
2022/12/12 13:26:47;;;;;;;17.38;8.85;;;;;;;1.96;nan;100015.72;5045679;28;20028;-70
2022/12/12 13:29:31;;;;;;;25.90;11.00;;;;;;;2.05;nan;100019.06;5064785;28;20050;-71
2022/12/12 13:32:27;;;;;;;23.88;10.48;;;;;;;1.96;nan;100020.13;5063433;28;20055;-71
2022/12/12 13:34:58;;;;;;;21.58;9.85;;;;;;;1.78;nan;100016.09;5064994;28;20028;-70
2022/12/12 13:37:24;;;;;;;29.77;11.85;;;;;;;1.78;nan;100028.25;5065298;28;20075;-70
2022/12/12 13:40:03;;;;;;;19.98;10.18;;;;;;;1.77;nan;100016.25;5064298;28;21635;-70